This is the latest recevied weather packets stored in our database for station/object KM8V-8. If no packets are shown the sender has not sent any weather packets the latest 10 day(s).
| Time | Temp. | Humidity | Pressure | Rain* | Wind** | Luminosity | Snow |
|---|---|---|---|---|---|---|---|
| 1778072419 | 7.78° C | 99% | 1009.9 hPa | 0 mm | - | 143 W/m² | - |
| 1778072119 | 7.78° C | 100% | 1009.7 hPa | 0 mm | - | 159 W/m² | - |
| 1778071819 | 7.78° C | 100% | 1009.8 hPa | 0 mm | - | 138 W/m² | - |
| 1778071519 | 7.78° C | 100% | 1009.9 hPa | 0 mm | - | 74 W/m² | - |
| 1778071219 | 7.78° C | 100% | 1009.6 hPa | 0 mm | - | 93 W/m² | - |
| 1778070919 | 7.78° C | 100% | 1009.7 hPa | 0 mm | - | 91 W/m² | - |
| 1778070619 | 7.78° C | 100% | 1009.7 hPa | 0 mm | - | 80 W/m² | - |
| 1778070320 | 7.78° C | 100% | 1009.6 hPa | 0 mm | - | 56 W/m² | - |
| 1778070020 | 7.78° C | 100% | 1009.7 hPa | 0 mm | - | 55 W/m² | - |
| 1778069720 | 7.78° C | 100% | 1009.7 hPa | 0 mm | - | 47 W/m² | - |
| 1778069420 | 7.78° C | 100% | 1009.8 hPa | 0 mm | - | 36 W/m² | - |
| 1778069120 | 7.78° C | 100% | 1009.8 hPa | 0 mm | - | 41 W/m² | - |
| 1778068824 | 7.78° C | 100% | 1009.7 hPa | 0 mm | - | 50 W/m² | - |
| 1778068520 | 7.78° C | 100% | 1009.6 hPa | 0 mm | - | 35 W/m² | - |
| 1778068220 | 7.78° C | 100% | 1009.7 hPa | 0 mm | - | 29 W/m² | - |
| 1778067920 | 7.22° C | 100% | 1009.5 hPa | 0 mm | - | 29 W/m² | - |
| 1778067620 | 7.22° C | 100% | 1009.4 hPa | 0 mm | - | 27 W/m² | - |
| 1778067321 | 7.22° C | 100% | 1009.3 hPa | 0 mm | - | 25 W/m² | - |
| 1778067020 | 7.22° C | 100% | 1009.1 hPa | 0 mm | - | 23 W/m² | - |
| 1778066721 | 7.22° C | 100% | 1008.9 hPa | 0 mm | - | 22 W/m² | - |
| 1778066421 | 7.22° C | 100% | 1008.9 hPa | 0 mm | - | 19 W/m² | - |
| 1778066121 | 7.22° C | 100% | 1008.9 hPa | 0 mm | - | 18 W/m² | - |
| 1778065821 | 7.22° C | 100% | 1008.9 hPa | 0 mm | - | 12 W/m² | - |
| 1778065521 | 7.22° C | 100% | 1008.7 hPa | 0 mm | - | 11 W/m² | - |
| 1778065221 | 7.22° C | 100% | 1008.4 hPa | 0 mm | - | 12 W/m² | - |
* Rain latest hour (hover to see other rain measurements)
** Current wind speed in m/s (hover to see current wind gust speed)